createdAt,value
2023-03-07T00:02:24.059Z,97.10
2023-03-07T00:05:56.946Z,105.40
2023-03-07T00:09:32.444Z,82.50
2023-03-07T00:13:14.234Z,102.20
2023-03-07T00:17:03.213Z,86.30
2023-03-07T00:20:53.628Z,85.50
2023-03-07T00:24:29.831Z,74.30
2023-03-07T00:28:02.966Z,94.20
2023-03-07T00:31:52.342Z,112.70
2023-03-07T00:35:36.929Z,73.50
2023-03-07T00:39:26.300Z,78.30
2023-03-07T00:43:15.727Z,91.30
2023-03-07T00:47:04.940Z,97.20
2023-03-07T00:50:43.993Z,73.80
2023-03-07T00:54:35.181Z,88.60
2023-03-07T00:58:24.238Z,99.50
2023-03-07T01:02:13.327Z,105.70
2023-03-07T01:06:01.296Z,93.60
2023-03-07T01:09:50.488Z,93.90
2023-03-07T01:13:39.253Z,92.30
2023-03-07T01:17:30.962Z,93.20
2023-03-07T01:21:06.086Z,86.00
2023-03-07T01:24:55.778Z,82.10
2023-03-07T01:28:44.631Z,88.30
2023-03-07T01:32:28.545Z,108.60
2023-03-07T01:36:18.656Z,97.90
2023-03-07T01:40:07.817Z,95.10
2023-03-07T01:44:02.277Z,108.00
2023-03-07T01:47:51.201Z,106.00
2023-03-07T01:51:40.161Z,87.90
2023-03-07T01:55:28.998Z,106.20
2023-03-07T01:59:10.872Z,113.10
2023-03-07T02:02:59.711Z,108.20
2023-03-07T02:06:34.940Z,89.80
2023-03-07T02:10:23.925Z,105.90
2023-03-07T02:14:06.789Z,102.00
2023-03-07T02:17:56.591Z,93.50
2023-03-07T02:22:05.748Z,82.80
2023-03-07T02:25:57.266Z,76.00
2023-03-07T02:29:36.250Z,88.90
2023-03-07T02:33:19.378Z,75.90
2023-03-07T02:37:14.628Z,68.00
2023-03-07T02:41:03.364Z,87.40
2023-03-07T02:44:52.430Z,80.00
2023-03-07T02:48:42.576Z,79.80
2023-03-07T02:52:31.760Z,71.00
2023-03-07T02:55:59.576Z,77.80
2023-03-07T02:59:39.905Z,73.40
2023-03-07T03:03:29.224Z,65.40
2023-03-07T03:07:18.103Z,56.30
2023-03-07T03:11:02.407Z,50.80
2023-03-07T03:14:51.472Z,52.10
2023-03-07T03:18:40.329Z,44.70
2023-03-07T03:22:29.544Z,40.50
2023-03-07T03:26:13.199Z,38.40
2023-03-07T03:29:54.888Z,34.20
2023-03-07T03:33:36.702Z,29.20
2023-03-07T03:37:25.735Z,28.50
2023-03-07T03:41:13.549Z,31.20
2023-03-07T03:44:56.891Z,26.00
2023-03-07T03:48:45.851Z,28.40
2023-03-07T03:52:26.820Z,28.60
2023-03-07T03:56:16.570Z,30.10
2023-03-07T04:00:05.780Z,37.70
2023-03-07T04:03:54.350Z,29.60
2023-03-07T04:07:38.113Z,25.00
2023-03-07T04:11:28.962Z,26.40
2023-03-07T04:15:17.885Z,29.40
2023-03-07T04:18:59.167Z,27.90
2023-03-07T04:22:48.249Z,25.60
2023-03-07T04:26:33.007Z,29.00
2023-03-07T04:30:21.900Z,32.20
2023-03-07T04:33:53.931Z,25.50
2023-03-07T04:37:43.284Z,29.10
2023-03-07T04:41:31.867Z,33.00
2023-03-07T04:45:23.708Z,31.90
2023-03-07T04:49:11.417Z,31.10
2023-03-07T04:52:47.765Z,35.30
2023-03-07T04:56:39.477Z,37.80
2023-03-07T05:00:28.398Z,43.30
2023-03-07T05:03:59.650Z,43.50
2023-03-07T05:07:48.498Z,44.30
2023-03-07T05:11:37.561Z,47.70
2023-03-07T05:15:26.465Z,48.30
2023-03-07T05:18:59.612Z,46.70
2023-03-07T05:22:48.664Z,46.60
2023-03-07T05:26:28.131Z,49.60
2023-03-07T05:30:17.883Z,44.40
2023-03-07T05:34:07.181Z,43.60
2023-03-07T05:37:57.521Z,47.60
2023-03-07T05:41:47.333Z,48.10
2023-03-07T05:45:37.640Z,43.90
2023-03-07T05:49:26.811Z,43.90
2023-03-07T05:53:15.929Z,49.30
2023-03-07T05:56:53.069Z,48.40
2023-03-07T06:00:45.821Z,47.20
2023-03-07T06:04:35.621Z,56.80
2023-03-07T06:08:23.923Z,48.70
2023-03-07T06:12:02.462Z,50.00
2023-03-07T06:15:51.811Z,51.10
2023-03-07T06:19:41.953Z,51.50
2023-03-07T06:23:22.223Z,52.70
2023-03-07T06:27:11.381Z,57.50
2023-03-07T06:31:00.764Z,55.10
2023-03-07T06:34:50.506Z,56.10
2023-03-07T06:38:40.146Z,54.60
2023-03-07T06:42:28.223Z,53.80
2023-03-07T06:46:17.162Z,61.30
2023-03-07T06:50:06.385Z,59.70
2023-03-07T06:53:55.888Z,52.10
2023-03-07T07:12:19.466Z,46.50
2023-03-07T07:16:53.940Z,43.60
2023-03-07T07:24:58.293Z,53.20
2023-03-07T07:29:19.993Z,47.40
2023-03-07T07:33:48.534Z,47.50
2023-03-07T07:38:16.746Z,48.20
2023-03-07T07:42:44.492Z,43.70
2023-03-07T07:47:26.790Z,47.30
2023-03-07T07:51:55.556Z,51.40
2023-03-07T07:56:25.652Z,45.10
2023-03-07T08:04:29.995Z,50.00
2023-03-07T08:08:34.621Z,48.60
2023-03-07T08:12:26.437Z,46.60
2023-03-07T08:16:53.961Z,46.80
2023-03-07T08:21:11.919Z,50.00
2023-03-07T08:25:22.662Z,45.30
2023-03-07T08:29:34.382Z,43.80
2023-03-07T08:34:03.501Z,45.00
2023-03-07T08:38:35.585Z,46.50
2023-03-07T08:43:04.484Z,42.80
2023-03-07T08:47:35.035Z,39.90
2023-03-07T08:52:10.201Z,41.90
2023-03-07T08:56:39.249Z,39.30
2023-03-07T09:01:09.164Z,41.70
2023-03-07T09:05:38.513Z,36.10
2023-03-07T09:10:10.415Z,40.90
2023-03-07T09:14:40.139Z,38.00
2023-03-07T09:19:11.088Z,41.00
2023-03-07T09:24:07.520Z,41.20
2023-03-07T09:37:41.747Z,42.00
2023-03-07T09:41:31.240Z,37.00
2023-03-07T09:45:32.405Z,41.70
2023-03-07T09:49:28.501Z,40.00
2023-03-07T09:53:18.812Z,40.10
2023-03-07T09:57:35.040Z,37.70
2023-03-07T10:01:36.651Z,40.20
2023-03-07T10:05:29.207Z,39.00
2023-03-07T10:09:21.881Z,39.80
2023-03-07T10:12:58.276Z,39.50
2023-03-07T10:16:56.233Z,41.00
2023-03-07T10:20:45.173Z,44.70
2023-03-07T10:24:23.997Z,42.90
2023-03-07T10:27:56.728Z,38.90
2023-03-07T10:31:45.109Z,40.70
2023-03-07T10:35:34.163Z,38.40
2023-03-07T10:39:26.755Z,37.40
2023-03-07T10:42:56.670Z,42.00
2023-03-07T10:46:41.559Z,39.90
2023-03-07T10:50:13.235Z,40.80
2023-03-07T10:53:49.684Z,43.10
2023-03-07T10:57:41.776Z,37.60
2023-03-07T11:01:05.251Z,41.70
2023-03-07T11:05:09.438Z,40.20
2023-03-07T11:09:09.360Z,40.40
2023-03-07T11:12:58.478Z,39.00
2023-03-07T11:16:50.898Z,39.70
2023-03-07T11:20:39.785Z,39.00
2023-03-07T11:24:31.745Z,37.20
2023-03-07T11:28:20.962Z,37.90
2023-03-07T11:32:16.106Z,38.90
2023-03-07T11:36:08.528Z,33.70
2023-03-07T11:39:51.753Z,37.80
2023-03-07T11:43:52.168Z,31.80
2023-03-07T11:51:24.103Z,30.50
2023-03-07T11:56:17.921Z,29.90
2023-03-07T12:00:55.376Z,30.70
2023-03-07T12:05:10.381Z,28.90
2023-03-07T12:09:42.250Z,28.80
2023-03-07T12:14:16.896Z,26.40
2023-03-07T12:23:41.553Z,24.50
2023-03-07T12:27:28.902Z,27.10
2023-03-07T12:31:26.575Z,23.70
2023-03-07T12:35:21.700Z,27.00
2023-03-07T12:39:10.792Z,23.40
2023-03-07T12:43:11.639Z,23.00
2023-03-07T12:47:18.769Z,25.30
2023-03-07T12:51:19.860Z,25.10
2023-03-07T12:55:10.579Z,24.80
2023-03-07T12:59:02.021Z,21.60
2023-03-07T13:03:06.825Z,23.90
2023-03-07T13:06:32.401Z,24.30
2023-03-07T13:10:24.879Z,24.10
2023-03-07T13:14:11.263Z,26.40
2023-03-07T13:18:12.385Z,22.40
2023-03-07T13:22:04.884Z,24.00
2023-03-07T13:26:00.452Z,26.20
2023-03-07T13:29:41.362Z,25.70
2023-03-07T13:33:31.868Z,26.60
2023-03-07T13:37:27.814Z,26.10
2023-03-07T13:41:25.016Z,25.20
2023-03-07T13:45:26.088Z,22.80
2023-03-07T13:49:14.478Z,24.50
2023-03-07T13:53:15.923Z,23.00
2023-03-07T13:57:18.223Z,19.70
2023-03-07T14:01:07.562Z,24.30
2023-03-07T14:05:09.217Z,21.30
2023-03-07T14:09:02.852Z,21.70
2023-03-07T14:13:21.233Z,19.40
2023-03-07T14:17:10.535Z,20.80
2023-03-07T14:21:26.879Z,22.70
2023-03-07T14:25:22.733Z,23.60
2023-03-07T14:29:21.038Z,19.50
2023-03-07T14:33:10.918Z,21.00
2023-03-07T14:37:02.257Z,20.20
2023-03-07T14:40:54.578Z,19.90
2023-03-07T14:44:57.117Z,18.20
2023-03-07T14:49:05.519Z,21.70
2023-03-07T14:52:58.872Z,20.40
2023-03-07T14:56:52.850Z,21.80
2023-03-07T15:00:45.297Z,18.40
2023-03-07T15:04:35.000Z,20.00
2023-03-07T15:08:27.291Z,20.80
2023-03-07T15:12:15.367Z,21.60
2023-03-07T15:16:14.408Z,22.10
2023-03-07T15:20:11.700Z,24.60
2023-03-07T15:24:00.916Z,21.20
2023-03-07T15:27:52.865Z,20.00
2023-03-07T15:31:43.670Z,19.40
2023-03-07T15:35:12.785Z,20.70
2023-03-07T15:43:12.596Z,20.40
2023-03-07T15:47:08.617Z,21.80
2023-03-07T15:51:06.743Z,20.60
2023-03-07T15:55:04.084Z,19.10
2023-03-07T15:59:18.499Z,21.00
2023-03-07T16:03:13.505Z,17.70
2023-03-07T16:07:13.013Z,18.80
2023-03-07T16:11:06.460Z,20.40
2023-03-07T16:15:03.491Z,18.80
2023-03-07T16:19:16.376Z,22.10
2023-03-07T16:23:06.437Z,23.80
2023-03-07T16:27:03.081Z,22.60
2023-03-07T16:31:14.834Z,20.90
2023-03-07T16:35:07.485Z,18.80
2023-03-07T16:39:05.380Z,20.60
2023-03-07T16:43:02.048Z,20.40
2023-03-07T16:46:56.342Z,21.70
2023-03-07T16:50:49.605Z,18.30
2023-03-07T16:54:35.766Z,17.00
2023-03-07T16:58:25.580Z,26.70
2023-03-07T17:02:21.711Z,7.80
2023-03-07T17:06:13.024Z,3.90
2023-03-07T17:10:10.641Z,3.80
2023-03-07T17:14:02.368Z,9.30
2023-03-07T17:17:59.113Z,5.10
2023-03-07T17:21:55.962Z,5.50
2023-03-07T17:26:10.448Z,2.80
2023-03-07T17:30:18.290Z,7.40
2023-03-07T17:34:08.940Z,10.80
2023-03-07T17:38:05.018Z,10.70
2023-03-07T17:41:58.831Z,9.00
2023-03-07T17:45:54.357Z,7.60
2023-03-07T17:49:46.953Z,9.00
2023-03-07T17:53:39.872Z,9.30
2023-03-07T17:57:29.843Z,8.20
2023-03-07T18:01:13.372Z,4.80
2023-03-07T18:05:02.725Z,4.00
2023-03-07T18:08:53.224Z,3.60
2023-03-07T18:12:47.010Z,4.90
2023-03-07T18:16:39.920Z,6.00
2023-03-07T18:20:46.417Z,8.50
2023-03-07T18:24:15.917Z,6.50
2023-03-07T18:27:49.522Z,4.90
2023-03-07T18:31:43.741Z,4.80
2023-03-07T18:35:20.615Z,5.50
2023-03-07T18:39:12.345Z,4.50
2023-03-07T18:42:47.779Z,4.40
2023-03-07T18:46:38.381Z,5.60
2023-03-07T18:50:31.893Z,6.80
2023-03-07T18:54:26.104Z,6.80
2023-03-07T18:58:21.942Z,8.30
2023-03-07T19:02:19.467Z,8.50
2023-03-07T19:06:11.895Z,10.70
2023-03-07T19:09:56.680Z,12.80
2023-03-07T19:13:50.333Z,10.20
2023-03-07T19:17:42.365Z,9.20
2023-03-07T19:21:35.468Z,11.00
2023-03-07T19:25:27.806Z,9.90
2023-03-07T19:29:14.724Z,7.80
2023-03-07T19:33:27.887Z,10.00
2023-03-07T19:41:35.841Z,11.40
2023-03-07T19:45:48.423Z,10.50
2023-03-07T19:49:14.171Z,11.40
2023-03-07T20:01:42.717Z,11.70
2023-03-07T20:06:13.494Z,11.20
2023-03-07T20:10:27.563Z,12.40
2023-03-07T20:13:50.927Z,12.40
2023-03-07T20:17:47.671Z,11.50
2023-03-07T20:21:41.511Z,13.60
2023-03-07T20:29:54.323Z,11.30
2023-03-07T20:33:43.559Z,9.90
2023-03-07T20:37:40.147Z,9.40
2023-03-07T20:41:36.389Z,10.40
2023-03-07T20:45:31.250Z,11.50
2023-03-07T20:49:19.818Z,11.40
2023-03-07T20:53:10.630Z,7.60
2023-03-07T20:57:04.898Z,6.20
2023-03-07T21:00:56.044Z,6.60
2023-03-07T21:04:54.471Z,6.40
2023-03-07T21:08:20.055Z,7.10
2023-03-07T21:12:50.190Z,7.00
2023-03-07T21:17:07.508Z,6.10
2023-03-07T21:21:22.417Z,8.50
2023-03-07T21:25:52.218Z,7.60
2023-03-07T21:29:37.918Z,7.90
2023-03-07T21:33:39.683Z,8.30
2023-03-07T21:41:34.208Z,7.20
2023-03-07T21:45:44.882Z,8.20
2023-03-07T21:49:35.219Z,9.70
2023-03-07T21:53:30.614Z,6.20
2023-03-07T21:57:31.275Z,5.90
2023-03-07T22:01:01.186Z,5.50
2023-03-07T22:04:50.161Z,6.50
2023-03-07T22:08:39.929Z,8.20
2023-03-07T22:12:29.221Z,7.10
2023-03-07T22:16:21.465Z,6.50
2023-03-07T22:20:11.053Z,5.80
2023-03-07T22:24:01.484Z,7.00
2023-03-07T22:27:44.381Z,5.90
2023-03-07T22:31:36.280Z,6.40
2023-03-07T22:35:26.667Z,8.40
2023-03-07T22:39:35.852Z,6.70
2023-03-07T22:48:23.548Z,6.90
2023-03-07T22:52:24.200Z,7.00
2023-03-07T22:56:11.819Z,7.80
2023-03-07T22:59:58.489Z,9.90
2023-03-07T23:03:48.546Z,8.60
2023-03-07T23:07:36.082Z,8.30
2023-03-07T23:11:23.924Z,7.90
2023-03-07T23:15:11.739Z,7.90
2023-03-07T23:23:15.353Z,9.50
2023-03-07T23:31:32.685Z,10.30
2023-03-07T23:35:22.495Z,10.40
2023-03-07T23:39:22.817Z,10.20
2023-03-07T23:43:10.839Z,7.90
2023-03-07T23:46:59.432Z,9.70
2023-03-07T23:50:47.053Z,8.10
2023-03-07T23:54:33.296Z,8.90
